Latest Coastal Weather Observations for Onslow Airport

IDW60701

Issued at 8:03 pm WST Friday 26 August 2016 (issued every 10 minutes, with the page automatically refreshed every 10 minutes)

About coastal observations | Map of coastal stations | Coastal observations for WA | Marine services | Other Formats
Station Details ID: 005017 Name: ONSLOW AIRPORT Lat: -21.67 Lon: 115.11 Height: 10.5 m
Data from the previous 72 hours. | See also: Recent months at Onslow Airport
Date/Time
WST
Temp
°C
Wind Pressure Rain since
9am
mm
Weather Cloud Vis
km
Sea
Height
m
Swell
Dir  Spd
kts
Gust
kts
hPa Trend Height
m
Period
s
Dir
26/08:00pm 18.9 N 4 5 1016.0 - 0.0 - - - - - - -
26/07:30pm 18.9 N 5 6 1015.7 - 0.0 - - - - - - -
26/07:00pm 19.2 N 6 6 1015.3 - 0.0 - - - - - - -
26/06:30pm 19.8 N 5 6 1015.0 - 0.0 - - - - - - -
26/06:00pm 20.9 N 6 8 1014.9 - 0.0 - - - - - - -
26/05:30pm 21.8 N 9 13 1014.8 - 0.0 - - - - - - -
26/05:00pm 22.7 N 11 14 1014.5 - 0.0 - - - - - - -
26/04:30pm 23.0 N 13 17 1014.1 - 0.0 - - - - - - -
26/04:00pm 23.4 NNE 13 17 1014.0 - 0.0 - - - - - - -
26/03:30pm 24.1 N 14 18 1014.0 - 0.0 - - - - - - -
26/03:00pm 24.2 N 16 22 1014.1 - 0.0 - - - - - - -
26/02:30pm 24.2 N 17 22 1014.3 - 0.0 - - - - - - -
26/02:00pm 24.7 N 17 23 1014.8 - 0.0 - - - - - - -
26/01:30pm 24.4 N 17 22 1015.2 - 0.0 - - - - - - -
26/01:00pm 24.8 N 17 21 1015.5 - 0.0 - - - - - - -
26/12:30pm 24.7 NNE 16 21 1016.0 - 0.0 - - - - - - -
26/12:00pm 24.8 NNE 15 20 1016.4 - 0.0 - - - - - - -
26/11:30am 24.3 NNE 15 18 1016.7 - 0.0 - - - - - - -
26/11:00am 25.0 NNE 13 16 1017.1 - 0.0 - - - - - - -
26/10:30am 25.3 NNE 11 15 1017.4 - 0.0 - - - - - - -
26/10:00am 24.0 ENE 8 10 1017.3 - 0.0 - - - - - - -
26/09:30am 22.6 E 7 9 1017.1 - 0.0 - - - - - - -
26/09:00am 21.5 E 7 8 1017.2 - 0.0 - - - - - - -
26/08:30am 19.6 E 4 6 1017.4 - 0.0 - - - - - - -
26/08:00am 17.1 CALM 0 3 1017.2 - 0.0 - - - - - - -
26/07:30am 14.6 SSE 3 4 1017.0 - 0.0 - - - - - - -
26/07:00am 12.7 ESE 3 3 1016.6 - 0.0 - - - - - - -
26/06:30am 11.9 ESE 6 7 1016.3 - 0.0 - - - - - - -
26/06:00am 12.6 ESE 7 10 1015.9 - 0.0 - - - - - - -
26/05:30am 12.6 ESE 7 8 1015.5 - 0.0 - - - - - - -
26/05:00am 13.0 ESE 7 8 1015.4 - 0.0 - - - - - - -
26/04:30am 13.7 ESE 6 6 1015.2 - 0.0 - - - - - - -
26/04:00am 13.9 ESE 5 6 1015.2 - 0.0 - - - - - - -
26/03:30am 13.5 ESE 5 6 1015.4 - 0.0 - - - - - - -
26/03:00am 13.9 ESE 6 6 1015.4 - 0.0 - - - - - - -
26/02:30am 14.0 ESE 6 7 1015.7 - 0.0 - - - - - - -
26/02:00am 14.0 ESE 6 7 1016.0 - 0.0 - - - - - - -
26/01:30am 14.3 ESE 4 6 1016.1 - 0.0 - - - - - - -
26/01:00am 14.4 SE 5 7 1016.4 - 0.0 - - - - - - -
26/12:30am 15.6 E 5 6 1016.5 - 0.0 - - - - - - -
26/12:00am 16.1 NNE 3 4 1016.6 - 0.0 - - - - - - -
 
Date/Time
WST
Temp
°C
Wind Pressure Rain since
9am
mm
Weather Cloud Vis
km
Sea
Height
m
Swell
Dir  Spd
kts
Gust
kts
hPa Trend Height
m
Period
s
Dir
25/11:30pm 16.5 NE 4 5 1016.6 - 0.0 - - - - - - -
25/11:00pm 17.1 NE 3 5 1016.8 - 0.0 - - - - - - -
25/10:30pm 17.2 NE 3 4 1017.0 - 0.0 - - - - - - -
25/10:00pm 17.2 NE 3 4 1017.0 - 0.0 - - - - - - -
25/09:30pm 17.3 NE 3 4 1017.1 - 0.0 - - - - - - -
25/09:00pm 17.8 NE 3 4 1017.0 - 0.0 - - - - - - -
25/08:30pm 18.9 NE 4 5 1017.0 - 0.0 - - - - - - -
25/08:00pm 18.3 NNE 5 6 1017.0 - 0.0 - - - - - - -
25/07:30pm 19.0 N 5 6 1016.8 - 0.0 - - - - - - -
25/07:00pm 19.0 N 7 8 1016.5 - 0.0 - - - - - - -
25/06:30pm 19.4 N 6 7 1016.4 - 0.0 - - - - - - -
25/06:00pm 21.1 N 7 9 1016.0 - 0.0 - - - - - - -
25/05:30pm 22.5 N 11 14 1015.7 - 0.0 - - - - - - -
25/05:00pm 23.3 N 12 15 1015.6 - 0.0 - - - - - - -
25/04:30pm 23.8 N 13 16 1015.4 - 0.0 - - - - - - -
25/04:00pm 24.1 N 13 17 1015.4 - 0.0 - - - - - - -
25/03:30pm 24.4 N 14 19 1015.4 - 0.0 - - - - - - -
25/03:00pm 24.9 N 15 19 1015.4 - 0.0 - - - - - - -
25/02:30pm 24.7 N 15 19 1015.6 - 0.0 - - - - - - -
25/02:00pm 24.8 N 15 19 1016.0 - 0.0 - - - - - - -
25/01:30pm 25.2 N 13 16 1016.4 - 0.0 - - - - - - -
25/01:00pm 24.4 N 14 19 1016.8 - 0.0 - - - - - - -
25/12:30pm 24.5 N 14 17 1017.1 - 0.0 - - - - - - -
25/12:00pm 24.4 N 12 15 1017.3 - 0.0 - - - - - - -
25/11:30am 24.1 NNE 13 15 1017.5 - 0.0 - - - - - - -
25/11:00am 24.5 NNE 13 15 1017.9 - 0.0 - - - - - - -
25/10:30am 24.3 NE 16 19 1018.2 - 0.0 - - - - - - -
25/10:00am 23.5 ENE 12 16 1018.4 - 0.0 - - - - - - -
25/09:30am 21.1 ENE 8 11 1018.5 - 0.0 - - - - - - -
25/09:00am 19.2 ESE 6 7 1018.2 - 0.0 - - - - - - -
25/08:30am 16.8 SE 6 7 1017.9 - 0.0 - - - - - - -
25/08:00am 15.1 SSE 7 8 1017.6 - 0.0 - - - - - - -
25/07:30am 13.1 SSW 6 7 1017.3 - 0.0 - - - - - - -
25/07:00am 11.2 S 6 7 1017.1 - 0.0 - - - - - - -
25/06:30am 10.6 S 6 6 1016.5 - 0.0 - - - - - - -
25/06:00am 11.4 SSW 5 7 1016.1 - 0.0 - - - - - - -
25/05:30am 11.3 SSW 4 6 1015.7 - 0.0 - - - - - - -
25/05:00am 11.5 SSW 5 6 1015.2 - 0.0 - - - - - - -
25/04:30am 12.1 SW 6 7 1015.2 - 0.0 - - - - - - -
25/04:00am 12.7 SW 7 7 1015.2 - 0.0 - - - - - - -
25/03:30am 12.9 SW 6 7 1015.2 - 0.0 - - - - - - -
25/03:00am 12.7 SW 5 5 1015.3 - 0.0 - - - - - - -
25/02:30am 12.2 SW 5 6 1015.5 - 0.0 - - - - - - -
25/02:00am 12.2 SSW 4 5 1015.7 - 0.0 - - - - - - -
25/01:30am 13.7 SSW 6 8 1015.9 - 0.0 - - - - - - -
25/01:00am 14.2 S 8 9 1016.2 - 0.0 - - - - - - -
25/12:30am 13.7 S 6 7 1016.3 - 0.0 - - - - - - -
25/12:00am 14.0 SSW 6 7 1016.5 - 0.0 - - - - - - -
 
Date/Time
WST
Temp
°C
Wind Pressure Rain since
9am
mm
Weather Cloud Vis
km
Sea
Height
m
Swell
Dir  Spd
kts
Gust
kts
hPa Trend Height
m
Period
s
Dir
24/11:30pm 14.7 SSW 6 7 1016.7 - 0.0 - - - - - - -
24/11:00pm 15.0 SW 5 6 1016.9 - 0.0 - - - - - - -
24/10:30pm 15.6 SW 4 5 1017.1 - 0.0 - - - - - - -
24/10:00pm 15.6 WSW 6 6 1017.3 - 0.0 - - - - - - -
24/09:30pm 16.2 WSW 7 8 1017.4 - 0.0 - - - - - - -
24/09:00pm 16.2 WSW 7 8 1017.3 - 0.0 - - - - - - -
24/08:30pm 17.0 SW 7 8 1017.3 - 0.0 - - - - - - -
24/08:00pm 16.5 SW 7 7 1017.3 - 0.0 - - - - - - -
24/07:30pm 17.5 SW 7 8 1017.1 - 0.0 - - - - - - -
24/07:00pm 17.7 WSW 6 7 1016.8 - 0.0 - - - - - - -
24/06:30pm 18.6 WSW 5 5 1016.5 - 0.0 - - - - - - -
24/06:00pm 20.6 WNW 6 9 1016.2 - 0.0 - - - - - - -
24/05:30pm 21.7 N 11 13 1015.8 - 0.0 - - - - - - -
24/05:00pm 22.3 NNW 10 12 1015.8 - 0.0 - - - - - - -
24/04:30pm 22.9 NNW 11 13 1015.4 - 0.0 - - - - - - -
24/04:00pm 23.3 NNW 11 14 1015.3 - 0.0 - - - - - - -
24/03:30pm 23.4 NNW 12 15 1015.3 - 0.0 - - - - - - -
24/03:00pm 23.5 NNW 13 16 1015.5 - 0.0 - - - - - - -
24/02:30pm 23.7 NNW 13 18 1015.7 - 0.0 - - - - - - -
24/02:00pm 23.6 NNW 13 18 1015.7 - 0.0 - - - - - - -
24/01:30pm 23.7 N 14 17 1016.0 - 0.0 - - - - - - -
24/01:00pm 23.9 N 14 19 1016.3 - 0.0 - - - - - - -
24/12:30pm 23.2 N 13 17 1016.6 - 0.0 - - - - - - -
24/12:00pm 23.9 N 13 17 1017.0 - 0.0 - - - - - - -
24/11:30am 23.2 NNE 12 15 1017.3 - 0.0 - - - - - - -
24/11:00am 22.9 NNE 10 13 1017.5 - 0.0 - - - - - - -
24/10:30am 22.7 NE 12 16 1017.8 - 0.0 - - - - - - -
24/10:00am 21.7 ENE 13 16 1018.0 - 0.0 - - - - - - -
24/09:30am 19.2 ENE 9 11 1018.1 - 0.0 - - - - - - -
24/09:00am 17.4 E 8 11 1018.1 - 0.0 - - - - - - -
24/08:30am 16.5 E 7 9 1017.9 - 0.0 - - - - - - -
24/08:00am 14.5 ESE 8 10 1017.6 - 0.0 - - - - - - -
24/07:30am 12.5 ESE 8 10 1017.4 - 0.0 - - - - - - -
24/07:00am 10.0 SE 6 7 1016.9 - 0.0 - - - - - - -
24/06:30am 9.2 SSE 7 7 1016.7 - 0.0 - - - - - - -
24/06:00am 9.5 SSE 6 7 1016.4 - 0.0 - - - - - - -
24/05:30am 10.0 SSE 8 9 1016.2 - 0.0 - - - - - - -
24/05:00am 10.2 SSE 8 10 1016.0 - 0.0 - - - - - - -
24/04:30am 10.6 SSE 8 9 1015.8 - 0.0 - - - - - - -
24/04:00am 11.1 SSE 8 9 1015.7 - 0.0 - - - - - - -
24/03:30am 11.5 SSE 8 11 1015.8 - 0.0 - - - - - - -
24/03:00am 11.3 S 9 10 1015.8 - 0.0 - - - - - - -
24/02:30am 11.6 S 9 10 1015.8 - 0.0 - - - - - - -
24/02:00am 11.7 S 9 10 1015.7 - 0.0 - - - - - - -
24/01:30am 12.0 S 8 9 1015.9 - 0.0 - - - - - - -
24/01:00am 12.5 SSW 7 8 1016.2 - 0.0 - - - - - - -
24/12:30am 12.3 S 7 8 1016.3 - 0.0 - - - - - - -
24/12:00am 13.1 S 8 9 1016.5 - 0.0 - - - - - - -
 
Date/Time
WST
Temp
°C
Wind Pressure Rain since
9am
mm
Weather Cloud Vis
km
Sea
Height
m
Swell
Dir  Spd
kts
Gust
kts
hPa Trend Height
m
Period
s
Dir
23/11:30pm 13.6 SSE 6 7 1016.4 - 0.0 - - - - - - -
23/11:00pm 13.8 SSE 7 9 1016.5 - 0.0 - - - - - - -
23/10:30pm 14.9 SSE 9 10 1016.5 - 0.0 - - - - - - -
23/10:00pm 15.3 S 9 10 1016.5 - 0.0 - - - - - - -
23/09:30pm 15.6 S 9 10 1016.5 - 0.0 - - - - - - -
23/09:00pm 15.3 S 8 9 1016.5 - 0.0 - - - - - - -
23/08:30pm 15.8 S 8 8 1016.2 - 0.0 - - - - - - -

Other Formats:

Comma delimited format used in spreadsheet applications
http://www.bom.gov.au/fwo/IDW60701/IDW60701.95305.axf

JavaScript Object Notation format (JSON) in row-major order
http://www.bom.gov.au/fwo/IDW60701/IDW60701.95305.json